Strona główna
METAR-TAF:

METAR-TAF

Lotnisko :

Port lotniczy Brasília

Brasília, Dystrykt Federalny, Brazylia

Szerokość geograficzna: 15-52S, Długość geograficzna: 047-56W, wysokość: 1061 m

Aktualna obserwacja pogody

Raport powstał 32 minut temu, godzina 09:00 UTC
Wiatr 7 kt od wschodnio-północny wschód
Temperatura 14°C
Wilgotność 72%
Ciśnienie 1024 hPa
Widzialność 10 km lub więcej
Brak chmur poniżej 1500 m i brak chmur cumulonimbus

METAR: SBBR 200900Z 06007KT CAVOK 14/09 Q1024

czas: 06:32 (09:32 UTC)

Prognoza

Raport powstał 5 godziny i 32 minut temu, godzina 04:00 UTC
Prognoza ważna od 20 godzina 06 UTC do 21 godzina 06 UTC
Wiatr 8 kt od wschodnio-południowy wschód
Widzialność 10 km lub więcej
Brak chmur poniżej 1500 m i brak chmur cumulonimbus
Przejściowo
od 20 godzina 12 UTC do 20 godzina 18 UTC
Wiatr 12 kt od wschodnio-północny wschód
Stopniowe zmiany
od 21 godzina 00 UTC do 21 godzina 02 UTC
Wiatr 3 kt od wschód

TAF: SBBR 200400Z 2006/2106 11008KT CAVOK TN15/2009Z TX25/2017Z TEMPO 2012/2018 07012KT BECMG 2100/2102 09003KT RMK PFY

Obserwacja i prognoza pogody dla ponad 4000 lotnisk (raport METAR i TAF).

Dostępne stacje oznaczono żółtymi i czerwonymi punktami na mapie.

Najedź kursorem aby zobaczyć nazwę stacji.

Kliknij aby zobaczyć obserwacje i prognozy pogody.

Aby zmienić mapę: kliknij na zielony przycisk z czarnym krzyżykiem, aby powiększyć; na zielony przycisk z myślnikiem, aby pomniejszyć; na zielone strzałki, aby przejść do map sąsiednich.


METAR-TAF: